createdAt,value
2019-01-23T00:02:23.944Z,-4.56
2019-01-23T00:04:54.707Z,-4.41
2019-01-23T00:07:25.496Z,-4.35
2019-01-23T00:09:56.262Z,-4.36
2019-01-23T00:12:27.027Z,-4.44
2019-01-23T00:14:57.798Z,-4.46
2019-01-23T00:17:28.564Z,-4.47
2019-01-23T00:19:59.326Z,-4.49
2019-01-23T00:22:30.093Z,-4.50
2019-01-23T00:25:00.852Z,-4.50
2019-01-23T00:27:31.616Z,-4.56
2019-01-23T00:30:05.883Z,-4.53
2019-01-23T00:32:36.667Z,-4.46
2019-01-23T00:35:07.558Z,-4.46
2019-01-23T00:37:38.326Z,-4.36
2019-01-23T00:40:11.801Z,-4.38
2019-01-23T00:42:42.675Z,-4.51
2019-01-23T00:45:14.499Z,-4.55
2019-01-23T00:47:45.250Z,-4.42
2019-01-23T00:50:16.014Z,-4.48
2019-01-23T00:52:46.790Z,-4.43
2019-01-23T00:55:17.757Z,-4.32
2019-01-23T00:57:48.553Z,-4.34
2019-01-23T01:00:22.223Z,-4.25
2019-01-23T01:02:53.982Z,-4.27
2019-01-23T01:05:24.753Z,-4.26
2019-01-23T01:07:55.517Z,-4.24
2019-01-23T01:10:26.277Z,-4.24
2019-01-23T01:12:57.057Z,-4.31
2019-01-23T01:15:27.822Z,-4.30
2019-01-23T01:17:58.792Z,-4.29
2019-01-23T01:20:29.567Z,-4.32
2019-01-23T01:23:00.330Z,-4.15
2019-01-23T01:25:31.088Z,-4.23
2019-01-23T01:28:01.859Z,-4.26
2019-01-23T01:30:32.630Z,-4.31
2019-01-23T01:33:03.387Z,-4.35
2019-01-23T01:35:34.154Z,-4.31
2019-01-23T01:38:05.020Z,-4.28
2019-01-23T01:40:35.774Z,-4.21
2019-01-23T01:43:06.554Z,-4.11
2019-01-23T01:45:37.323Z,-4.21
2019-01-23T01:48:08.092Z,-4.21
2019-01-23T01:50:38.952Z,-4.20
2019-01-23T01:53:09.724Z,-4.26
2019-01-23T01:55:40.726Z,-4.20
2019-01-23T01:58:11.610Z,-4.25
2019-01-23T02:00:42.390Z,-4.18
2019-01-23T02:03:15.603Z,-4.39
2019-01-23T02:05:45.849Z,-4.34
2019-01-23T02:08:16.627Z,-4.29
2019-01-23T02:10:47.396Z,-4.21
2019-01-23T02:13:18.199Z,-4.34
2019-01-23T02:15:48.986Z,-4.31
2019-01-23T02:18:19.750Z,-4.39
2019-01-23T02:20:50.515Z,-4.31
2019-01-23T02:23:21.307Z,-4.41
2019-01-23T02:25:52.073Z,-4.45
2019-01-23T02:28:22.831Z,-4.48
2019-01-23T02:30:53.838Z,-4.39
2019-01-23T02:33:24.591Z,-4.45
2019-01-23T02:35:55.388Z,-4.47
2019-01-23T02:38:26.267Z,-4.44
2019-01-23T02:40:57.089Z,-4.50
2019-01-23T02:43:27.985Z,-4.55
2019-01-23T02:45:58.758Z,-4.58
2019-01-23T02:48:29.514Z,-4.54
2019-01-23T02:51:00.291Z,-4.61
2019-01-23T02:53:31.069Z,-4.54
2019-01-23T02:56:01.933Z,-4.60
2019-01-23T02:58:32.717Z,-4.58
2019-01-23T03:01:03.494Z,-4.58
2019-01-23T03:03:34.276Z,-4.55
2019-01-23T03:06:05.050Z,-4.53
2019-01-23T03:08:36.927Z,-4.59
2019-01-23T03:11:07.702Z,-4.72
2019-01-23T03:13:38.485Z,-4.86
2019-01-23T03:16:09.261Z,-4.75
2019-01-23T03:18:40.032Z,-4.71
2019-01-23T03:21:10.815Z,-4.64
2019-01-23T03:23:41.677Z,-4.76
2019-01-23T03:26:12.473Z,-4.78
2019-01-23T03:28:43.267Z,-4.80
2019-01-23T03:31:14.032Z,-4.78
2019-01-23T03:33:44.808Z,-4.83
2019-01-23T03:36:16.638Z,-4.87
2019-01-23T03:38:47.409Z,-4.83
2019-01-23T03:41:18.191Z,-4.77
2019-01-23T03:43:48.957Z,-4.73
2019-01-23T03:46:19.741Z,-4.68
2019-01-23T03:48:50.505Z,-4.67
2019-01-23T03:51:21.288Z,-4.68
2019-01-23T03:53:52.045Z,-4.82
2019-01-23T03:56:22.833Z,-4.87
2019-01-23T03:58:53.696Z,-4.96
2019-01-23T04:01:24.469Z,-4.95
2019-01-23T04:03:55.559Z,-4.94
2019-01-23T04:06:26.335Z,-4.84
2019-01-23T04:08:57.110Z,-4.84
2019-01-23T04:11:28.186Z,-4.99
2019-01-23T04:13:58.948Z,-4.97
2019-01-23T04:16:29.729Z,-4.96
2019-01-23T04:19:00.498Z,-4.95
2019-01-23T04:21:31.379Z,-4.89
2019-01-23T04:24:02.156Z,-4.91
2019-01-23T04:26:32.958Z,-4.93
2019-01-23T04:29:03.708Z,-4.96
2019-01-23T04:31:34.477Z,-4.88
2019-01-23T04:34:05.236Z,-4.97
2019-01-23T04:36:36.053Z,-4.83
2019-01-23T04:39:06.895Z,-4.86
2019-01-23T04:41:37.681Z,-5.00
2019-01-23T04:44:08.459Z,-4.93
2019-01-23T04:46:39.219Z,-4.97
2019-01-23T04:49:09.995Z,-4.97
2019-01-23T04:51:42.686Z,-5.06
2019-01-23T04:54:13.784Z,-5.00
2019-01-23T04:56:44.657Z,-5.02
2019-01-23T04:59:15.417Z,-4.98
2019-01-23T05:01:46.203Z,-4.96
2019-01-23T05:04:16.995Z,-4.93
2019-01-23T05:06:47.771Z,-4.95
2019-01-23T05:09:18.587Z,-5.07
2019-01-23T05:11:49.363Z,-4.88
2019-01-23T05:14:20.134Z,-4.97
2019-01-23T05:16:50.917Z,-4.96
2019-01-23T05:19:21.684Z,-4.94
2019-01-23T05:21:52.487Z,-4.92
2019-01-23T05:24:23.268Z,-4.89
2019-01-23T05:26:54.021Z,-4.92
2019-01-23T05:29:24.789Z,-4.93
2019-01-23T05:31:55.579Z,-4.85
2019-01-23T05:34:26.354Z,-4.94
2019-01-23T05:36:57.130Z,-5.00
2019-01-23T05:39:27.903Z,-5.03
2019-01-23T05:41:58.695Z,-5.08
2019-01-23T05:44:29.471Z,-5.11
2019-01-23T05:47:00.247Z,-5.07
2019-01-23T05:49:31.038Z,-5.03
2019-01-23T05:52:01.901Z,-5.08
2019-01-23T05:54:32.694Z,-5.00
2019-01-23T05:57:03.472Z,-5.03
2019-01-23T05:59:34.261Z,-5.13
2019-01-23T06:02:05.031Z,-5.15
2019-01-23T06:04:35.806Z,-5.24
2019-01-23T06:07:06.560Z,-5.01
2019-01-23T06:09:37.330Z,-5.00
2019-01-23T06:12:08.103Z,-5.10
2019-01-23T06:14:38.871Z,-5.06
2019-01-23T06:17:09.625Z,-5.13
2019-01-23T06:19:40.393Z,-5.18
2019-01-23T06:22:11.156Z,-5.27
2019-01-23T06:24:41.935Z,-5.26
2019-01-23T06:27:12.727Z,-5.32
2019-01-23T06:29:43.506Z,-5.26
2019-01-23T06:32:14.280Z,-5.38
2019-01-23T06:34:45.069Z,-5.32
2019-01-23T06:37:15.834Z,-5.22
2019-01-23T06:39:46.599Z,-5.30
2019-01-23T06:42:17.377Z,-5.29
2019-01-23T06:44:48.160Z,-5.32
2019-01-23T06:47:18.922Z,-5.38
2019-01-23T06:49:49.702Z,-5.27
2019-01-23T06:52:20.476Z,-5.18
2019-01-23T06:54:51.279Z,-5.53
2019-01-23T06:57:22.011Z,-5.10
2019-01-23T06:59:52.783Z,-5.17
2019-01-23T07:02:23.530Z,-5.13
2019-01-23T07:04:54.307Z,-5.14
2019-01-23T07:07:25.156Z,-5.25
2019-01-23T07:09:55.939Z,-5.11
2019-01-23T07:12:26.703Z,-5.03
2019-01-23T07:14:57.487Z,-4.98
2019-01-23T07:17:28.297Z,-5.10
2019-01-23T07:19:59.066Z,-5.16
2019-01-23T07:22:30.834Z,-4.98
2019-01-23T07:25:01.775Z,-4.99
2019-01-23T07:27:32.497Z,-4.99
2019-01-23T07:30:09.660Z,-4.90
2019-01-23T07:32:40.423Z,-4.76
2019-01-23T07:35:11.198Z,-4.82
2019-01-23T07:37:41.953Z,-4.88
2019-01-23T07:40:12.840Z,-4.90
2019-01-23T07:42:43.596Z,-4.81
2019-01-23T07:45:17.095Z,-4.74
2019-01-23T07:47:47.858Z,-4.61
2019-01-23T07:50:19.027Z,-4.58
2019-01-23T07:52:49.799Z,-4.49
2019-01-23T07:55:20.667Z,-4.59
2019-01-23T07:57:51.479Z,-4.52
2019-01-23T08:00:31.047Z,-4.36
2019-01-23T08:02:57.280Z,-4.43
2019-01-23T08:05:28.041Z,-4.44
2019-01-23T08:07:58.815Z,-4.48
2019-01-23T08:10:29.575Z,-4.59
2019-01-23T08:13:00.346Z,-4.47
2019-01-23T08:15:32.522Z,-4.38
2019-01-23T08:18:03.591Z,-4.44
2019-01-23T08:20:34.388Z,-4.34
2019-01-23T08:23:05.144Z,-4.29
2019-01-23T08:25:35.916Z,-4.17
2019-01-23T08:28:06.691Z,-4.22
2019-01-23T08:30:39.311Z,-3.97
2019-01-23T08:33:10.119Z,-3.96
2019-01-23T08:35:40.983Z,-4.32
2019-01-23T08:38:11.740Z,-3.99
2019-01-23T08:40:42.518Z,-4.01
2019-01-23T08:43:13.275Z,-3.82
2019-01-23T08:45:44.049Z,-3.79
2019-01-23T08:48:14.811Z,-3.75
2019-01-23T08:50:45.573Z,-3.85
2019-01-23T08:53:16.327Z,-3.94
2019-01-23T08:55:53.254Z,-3.87
2019-01-23T08:58:19.751Z,-3.72
2019-01-23T09:00:50.523Z,-3.57
2019-01-23T09:03:21.277Z,-3.57
2019-01-23T09:05:52.050Z,-3.54
2019-01-23T09:08:22.822Z,-3.47
2019-01-23T09:10:53.592Z,-3.55
2019-01-23T09:13:24.353Z,-3.27
2019-01-23T09:15:55.145Z,-3.03
2019-01-23T09:18:25.899Z,-2.96
2019-01-23T09:20:56.653Z,-2.81
2019-01-23T09:23:27.430Z,-3.00
2019-01-23T09:25:58.193Z,-2.98
2019-01-23T09:28:28.957Z,-3.32
2019-01-23T09:31:06.650Z,-3.32
2019-01-23T09:33:49.786Z,-3.44
2019-01-23T09:36:48.466Z,-3.49
2019-01-23T09:39:23.046Z,-3.45
2019-01-23T09:42:09.202Z,-3.32
2019-01-23T09:45:12.607Z,-3.36
2019-01-23T09:48:11.904Z,-3.28
2019-01-23T09:50:55.475Z,-3.23
2019-01-23T09:53:33.003Z,-3.35
2019-01-23T09:56:03.761Z,-3.25
2019-01-23T09:58:34.532Z,-3.21
2019-01-23T10:01:06.633Z,-2.92
2019-01-23T10:03:38.112Z,-2.69
2019-01-23T10:06:09.034Z,-2.74
2019-01-23T10:08:39.798Z,-2.76
2019-01-23T10:11:10.567Z,-2.55
2019-01-23T10:13:41.345Z,-2.45
2019-01-23T10:16:12.107Z,-2.78
2019-01-23T10:18:43.184Z,-2.67
2019-01-23T10:21:14.462Z,-2.68
2019-01-23T10:23:45.246Z,-3.03
2019-01-23T10:26:16.009Z,-2.54
2019-01-23T10:28:46.785Z,-2.49
2019-01-23T10:31:17.555Z,-2.25
2019-01-23T10:33:48.307Z,-2.21
2019-01-23T10:36:19.070Z,-2.41
2019-01-23T10:38:49.857Z,-2.26
2019-01-23T10:41:20.634Z,-2.39
2019-01-23T10:43:51.400Z,-2.47
2019-01-23T10:46:22.164Z,-2.52
2019-01-23T10:48:53.001Z,-2.40
2019-01-23T10:51:23.759Z,-2.65
2019-01-23T10:53:54.569Z,-2.77
2019-01-23T10:56:25.341Z,-2.87
2019-01-23T10:58:56.218Z,-2.98
2019-01-23T11:01:27.047Z,-2.80
2019-01-23T11:03:57.902Z,-2.67
2019-01-23T11:06:28.805Z,-2.77
2019-01-23T11:08:59.793Z,-2.55
2019-01-23T11:11:30.655Z,-2.76
2019-01-23T11:14:01.515Z,-2.96
2019-01-23T11:16:32.358Z,-2.72
2019-01-23T11:19:03.444Z,-2.67
2019-01-23T11:21:34.200Z,-2.76
2019-01-23T11:24:05.158Z,-2.73
2019-01-23T11:26:36.027Z,-2.72
2019-01-23T11:29:06.896Z,-2.52
2019-01-23T11:31:37.671Z,-2.43
2019-01-23T11:34:08.442Z,-2.50
2019-01-23T11:36:39.219Z,-2.67
2019-01-23T11:39:09.977Z,-2.42
2019-01-23T11:41:40.746Z,-2.37
2019-01-23T11:44:11.506Z,-1.95
2019-01-23T11:46:42.323Z,-1.99
2019-01-23T11:49:13.108Z,-2.05
2019-01-23T11:51:43.901Z,-1.96
2019-01-23T11:54:14.670Z,-2.15
2019-01-23T11:56:45.592Z,-2.23
2019-01-23T11:59:16.330Z,-2.21
2019-01-23T12:01:47.110Z,-1.97
2019-01-23T12:04:17.883Z,-1.65
2019-01-23T12:06:48.656Z,-1.89
2019-01-23T12:09:19.453Z,-2.34
2019-01-23T12:11:50.229Z,-2.33
2019-01-23T12:14:20.994Z,-2.30
2019-01-23T12:16:51.774Z,-2.44
2019-01-23T12:19:22.533Z,-2.24
2019-01-23T12:21:53.307Z,-2.30
2019-01-23T12:24:24.816Z,-2.37
2019-01-23T12:26:55.640Z,-2.37
2019-01-23T12:29:26.463Z,-2.27
2019-01-23T12:31:57.305Z,-2.29
2019-01-23T12:34:28.129Z,-2.05
2019-01-23T12:36:58.986Z,-2.13
2019-01-23T12:39:29.821Z,-1.87
2019-01-23T12:42:00.593Z,-1.97
2019-01-23T12:44:31.359Z,-1.89
2019-01-23T12:47:02.164Z,-1.80
2019-01-23T12:49:32.922Z,-1.94
2019-01-23T12:52:03.690Z,-1.84
2019-01-23T12:54:34.555Z,-1.81
2019-01-23T12:57:05.662Z,-1.76
2019-01-23T12:59:36.434Z,-1.85
2019-01-23T13:02:09.851Z,-2.12
2019-01-23T13:04:39.970Z,-2.35
2019-01-23T13:07:10.735Z,-2.22
2019-01-23T13:09:41.505Z,-2.09
2019-01-23T13:12:12.461Z,-2.07
2019-01-23T13:14:43.397Z,-2.26
2019-01-23T13:17:14.298Z,-2.22
2019-01-23T13:19:45.211Z,-2.39
2019-01-23T13:22:15.998Z,-2.21
2019-01-23T13:24:46.898Z,-2.18
2019-01-23T13:27:17.674Z,-2.26
2019-01-23T13:29:48.457Z,-2.41
2019-01-23T13:32:19.525Z,-2.38
2019-01-23T13:34:50.922Z,-2.48
2019-01-23T13:37:21.938Z,-2.33
2019-01-23T13:39:52.726Z,-2.32
2019-01-23T13:42:23.769Z,-2.44
2019-01-23T13:44:54.548Z,-2.42
2019-01-23T13:47:26.216Z,-2.34
2019-01-23T13:49:57.136Z,-2.24
2019-01-23T13:52:28.062Z,-2.16
2019-01-23T13:54:58.842Z,-2.36
2019-01-23T13:57:29.624Z,-2.27
2019-01-23T14:02:41.933Z,-2.26
2019-01-23T14:05:12.936Z,-2.70
2019-01-23T14:07:43.855Z,-2.21
2019-01-23T14:10:15.997Z,-2.36
2019-01-23T14:12:46.777Z,-2.20
2019-01-23T14:15:20.969Z,-2.31
2019-01-23T14:17:51.902Z,-2.31
2019-01-23T14:20:22.833Z,-2.23
2019-01-23T14:22:53.746Z,-2.19
2019-01-23T14:25:24.855Z,-2.23
2019-01-23T14:27:55.749Z,-2.15
2019-01-23T14:30:38.991Z,-2.29
2019-01-23T14:33:10.146Z,-2.20
2019-01-23T14:35:41.260Z,-2.37
2019-01-23T14:38:12.178Z,-2.31
2019-01-23T14:40:43.232Z,-2.40
2019-01-23T14:43:14.509Z,-2.18
2019-01-23T14:45:45.962Z,-2.12
2019-01-23T14:48:17.161Z,-2.14
2019-01-23T14:50:48.252Z,-2.15
2019-01-23T14:53:19.159Z,-2.28
2019-01-23T14:55:51.202Z,-2.42
2019-01-23T14:58:22.700Z,-2.45
2019-01-23T15:00:53.558Z,-2.51
2019-01-23T15:03:24.747Z,-2.74
2019-01-23T15:05:56.156Z,-2.81
2019-01-23T15:08:27.390Z,-3.05
2019-01-23T15:10:58.334Z,-3.06
2019-01-23T15:13:29.676Z,-2.88
2019-01-23T15:16:00.898Z,-3.04
2019-01-23T15:18:32.170Z,-3.05
2019-01-23T15:21:03.521Z,-2.98
2019-01-23T15:23:34.854Z,-2.87
2019-01-23T15:26:06.121Z,-2.90
2019-01-23T15:28:37.552Z,-3.01
2019-01-23T15:31:09.210Z,-3.18
2019-01-23T15:33:40.538Z,-3.13
2019-01-23T15:36:11.931Z,-3.13
2019-01-23T15:38:43.298Z,-3.08
2019-01-23T15:41:14.883Z,-3.14
2019-01-23T15:43:46.459Z,-3.15
2019-01-23T15:46:18.124Z,-3.27
2019-01-23T15:48:49.609Z,-3.33
2019-01-23T15:51:20.988Z,-3.32
2019-01-23T15:53:52.530Z,-3.30
2019-01-23T15:56:23.912Z,-3.35
2019-01-23T15:58:55.257Z,-3.40
2019-01-23T16:01:26.472Z,-3.44
2019-01-23T16:03:57.550Z,-3.44
2019-01-23T16:06:29.917Z,-3.38
2019-01-23T16:09:01.411Z,-3.41
2019-01-23T16:11:32.883Z,-3.36
2019-01-23T16:14:04.685Z,-3.39
2019-01-23T16:16:36.099Z,-3.39
2019-01-23T16:19:07.306Z,-3.45
2019-01-23T16:21:45.451Z,-3.56
2019-01-23T16:24:12.095Z,-3.55
2019-01-23T16:26:43.447Z,-3.57
2019-01-23T16:29:14.685Z,-3.57
2019-01-23T16:31:46.251Z,-3.69
2019-01-23T16:34:17.826Z,-3.70
2019-01-23T16:36:49.427Z,-3.59
2019-01-23T16:39:20.816Z,-3.60
2019-01-23T16:41:52.385Z,-3.71
2019-01-23T16:44:23.744Z,-3.66
2019-01-23T16:46:55.117Z,-3.63
2019-01-23T16:49:26.695Z,-3.68
2019-01-23T16:51:58.110Z,-3.71
2019-01-23T16:54:29.843Z,-3.77
2019-01-23T16:57:04.682Z,-3.82
2019-01-23T16:59:36.328Z,-3.72
2019-01-23T17:02:08.213Z,-3.83
2019-01-23T17:04:39.855Z,-3.83
2019-01-23T17:07:11.659Z,-3.82
2019-01-23T17:09:43.012Z,-3.72
2019-01-23T17:12:14.532Z,-3.79
2019-01-23T17:14:46.071Z,-3.81
2019-01-23T17:17:17.674Z,-3.76
2019-01-23T17:19:49.183Z,-3.71
2019-01-23T17:22:20.886Z,-4.19
2019-01-23T17:24:52.480Z,-3.77
2019-01-23T17:27:24.039Z,-3.85
2019-01-23T17:29:55.869Z,-3.75
2019-01-23T17:32:27.600Z,-3.78
2019-01-23T17:34:59.434Z,-3.77
2019-01-23T17:37:31.105Z,-3.67
2019-01-23T17:40:03.847Z,-3.59
2019-01-23T17:42:36.861Z,-3.64
2019-01-23T17:45:20.387Z,-3.75
2019-01-23T17:47:52.337Z,-3.75
2019-01-23T17:50:24.496Z,-3.75
2019-01-23T17:52:56.150Z,-3.77
2019-01-23T17:55:32.830Z,-3.77
2019-01-23T17:58:06.817Z,-3.73
2019-01-23T18:00:42.888Z,-3.79
2019-01-23T18:03:14.416Z,-3.76
2019-01-23T18:05:51.082Z,-3.72
2019-01-23T18:08:19.923Z,-3.66
2019-01-23T18:10:51.440Z,-3.55
2019-01-23T18:13:23.252Z,-3.64
2019-01-23T18:15:56.144Z,-3.64
2019-01-23T18:18:27.973Z,-3.66
2019-01-23T18:20:59.766Z,-3.66
2019-01-23T18:23:31.392Z,-3.67
2019-01-23T18:26:03.075Z,-3.58
2019-01-23T18:28:35.060Z,-3.63
2019-01-23T18:31:13.607Z,-3.50
2019-01-23T18:34:19.058Z,-3.61
2019-01-23T18:36:54.635Z,-3.57
2019-01-23T18:39:39.064Z,-3.57
2019-01-23T18:42:17.581Z,-3.48
2019-01-23T18:45:01.961Z,-3.46
2019-01-23T18:47:37.302Z,-3.35
2019-01-23T18:50:31.813Z,-3.44
2019-01-23T18:53:03.835Z,-3.43
2019-01-23T18:55:35.699Z,-3.53
2019-01-23T18:58:07.416Z,-3.58
2019-01-23T19:00:39.319Z,-3.45
2019-01-23T19:03:11.201Z,-3.41
2019-01-23T19:05:43.139Z,-3.43
2019-01-23T19:08:15.096Z,-3.42
2019-01-23T19:10:46.996Z,-3.44
2019-01-23T19:13:18.499Z,-3.43
2019-01-23T19:15:50.393Z,-3.21
2019-01-23T19:18:22.267Z,-3.42
2019-01-23T19:20:53.932Z,-3.41
2019-01-23T19:23:25.761Z,-3.41
2019-01-23T19:25:57.367Z,-3.27
2019-01-23T19:28:29.061Z,-3.36
2019-01-23T19:31:00.878Z,-3.34
2019-01-23T19:33:32.765Z,-3.30
2019-01-23T19:36:04.772Z,-3.27
2019-01-23T19:38:36.811Z,-3.16
2019-01-23T19:41:09.037Z,-3.12
2019-01-23T19:43:40.937Z,-3.16
2019-01-23T19:46:12.934Z,-3.23
2019-01-23T19:48:44.928Z,-3.16
2019-01-23T19:51:16.955Z,-3.18
2019-01-23T19:53:48.799Z,-3.28
2019-01-23T19:56:20.486Z,-3.27
2019-01-23T19:58:52.145Z,-3.12
2019-01-23T20:01:24.022Z,-3.26
2019-01-23T20:03:56.128Z,-3.24
2019-01-23T20:06:28.146Z,-3.18
2019-01-23T20:09:00.039Z,-3.16
2019-01-23T20:11:32.046Z,-3.09
2019-01-23T20:14:04.474Z,-3.05
2019-01-23T20:16:36.267Z,-3.15
2019-01-23T20:19:09.467Z,-3.19
2019-01-23T20:21:41.155Z,-3.23
2019-01-23T20:24:12.898Z,-3.27
2019-01-23T20:26:44.790Z,-3.16
2019-01-23T20:29:16.786Z,-3.07
2019-01-23T20:31:48.772Z,-3.19
2019-01-23T20:34:20.713Z,-3.16
2019-01-23T20:36:52.694Z,-3.04
2019-01-23T20:39:24.371Z,-3.04
2019-01-23T20:41:56.093Z,-3.10
2019-01-23T20:44:27.755Z,-3.26
2019-01-23T20:46:59.712Z,-3.20
2019-01-23T20:49:31.563Z,-3.20
2019-01-23T20:52:03.988Z,-3.04
2019-01-23T20:54:35.531Z,-2.98
2019-01-23T20:57:07.461Z,-3.05
2019-01-23T20:59:39.103Z,-3.19
2019-01-23T21:02:10.783Z,-3.23
2019-01-23T21:04:42.739Z,-3.13
2019-01-23T21:07:14.730Z,-3.18
2019-01-23T21:09:46.458Z,-3.00
2019-01-23T21:12:18.815Z,-3.04
2019-01-23T21:14:50.896Z,-3.16
2019-01-23T21:17:22.966Z,-3.13
2019-01-23T21:19:54.916Z,-3.09
2019-01-23T21:22:26.638Z,-3.04
2019-01-23T21:24:58.326Z,-3.09
2019-01-23T21:27:30.013Z,-3.00
2019-01-23T21:30:01.635Z,-3.08
2019-01-23T21:32:33.324Z,-3.09
2019-01-23T21:35:07.215Z,-3.07
2019-01-23T21:37:38.786Z,-3.02
2019-01-23T21:40:16.559Z,-3.07
2019-01-23T21:42:48.124Z,-3.08
2019-01-23T21:45:19.769Z,-3.07
2019-01-23T21:47:51.683Z,-3.08
2019-01-23T21:50:24.422Z,-2.92
2019-01-23T21:52:55.976Z,-2.95
2019-01-23T21:55:27.530Z,-2.88
2019-01-23T21:57:59.246Z,-2.83
2019-01-23T22:00:34.514Z,-2.87
2019-01-23T22:03:07.837Z,-2.88
2019-01-23T22:05:39.292Z,-2.99
2019-01-23T22:08:10.687Z,-2.90
2019-01-23T22:10:42.186Z,-2.79
2019-01-23T22:13:13.428Z,-2.98
2019-01-23T22:15:44.491Z,-2.95
2019-01-23T22:18:15.832Z,-2.84
2019-01-23T22:20:47.014Z,-2.96
2019-01-23T22:23:18.221Z,-2.94
2019-01-23T22:25:49.319Z,-2.83
2019-01-23T22:28:20.414Z,-2.91
2019-01-23T22:30:51.501Z,-2.87
2019-01-23T22:33:22.424Z,-2.78
2019-01-23T22:35:53.193Z,-2.93
2019-01-23T22:38:24.104Z,-2.94
2019-01-23T22:40:54.880Z,-2.85
2019-01-23T22:43:25.644Z,-2.88
2019-01-23T22:45:56.426Z,-2.84
2019-01-23T22:48:27.196Z,-2.89
2019-01-23T22:50:58.061Z,-2.85
2019-01-23T22:53:28.844Z,-2.91
2019-01-23T22:55:59.612Z,-2.83
2019-01-23T22:58:30.412Z,-2.90
2019-01-23T23:01:14.170Z,-3.00
2019-01-23T23:03:45.052Z,-2.90
2019-01-23T23:06:15.888Z,-2.84
2019-01-23T23:08:46.740Z,-2.76
2019-01-23T23:11:17.615Z,-2.80
2019-01-23T23:13:59.513Z,-2.75
2019-01-23T23:16:30.277Z,-2.85
2019-01-23T23:19:01.032Z,-2.86
2019-01-23T23:21:31.822Z,-2.81
2019-01-23T23:24:02.684Z,-2.83
2019-01-23T23:26:33.459Z,-2.85
2019-01-23T23:29:04.216Z,-2.79
2019-01-23T23:31:35.086Z,-2.79
2019-01-23T23:34:09.924Z,-2.83
2019-01-23T23:36:38.521Z,-2.78
2019-01-23T23:39:09.296Z,-2.83
2019-01-23T23:41:40.068Z,-2.78
2019-01-23T23:44:10.824Z,-2.76
2019-01-23T23:46:41.701Z,-2.83
2019-01-23T23:49:12.472Z,-2.66
2019-01-23T23:51:43.236Z,-2.68
2019-01-23T23:54:13.998Z,-2.64
2019-01-23T23:56:44.775Z,-2.68
2019-01-23T23:59:15.526Z,-2.57
